sensor_id;sensor_type;location;lat;lon;timestamp;P1;durP1;ratioP1;P2;durP2;ratioP2
31537;SDS011;18147;51.952;6.146;2024-03-02T00:00:14;3.83;;;2.45;;
31537;SDS011;18147;51.952;6.146;2024-03-02T00:02:40;2.80;;;2.13;;
31537;SDS011;18147;51.952;6.146;2024-03-02T00:05:06;3.42;;;2.22;;
31537;SDS011;18147;51.952;6.146;2024-03-02T00:07:32;4.93;;;2.10;;
31537;SDS011;18147;51.952;6.146;2024-03-02T00:09:58;4.85;;;2.60;;
31537;SDS011;18147;51.952;6.146;2024-03-02T00:12:24;4.30;;;2.72;;
31537;SDS011;18147;51.952;6.146;2024-03-02T00:14:51;3.50;;;2.22;;
31537;SDS011;18147;51.952;6.146;2024-03-02T00:17:21;5.32;;;2.38;;
31537;SDS011;18147;51.952;6.146;2024-03-02T00:19:50;2.70;;;2.15;;
31537;SDS011;18147;51.952;6.146;2024-03-02T00:22:15;4.28;;;1.90;;
31537;SDS011;18147;51.952;6.146;2024-03-02T00:24:41;6.20;;;2.00;;
31537;SDS011;18147;51.952;6.146;2024-03-02T00:27:06;3.88;;;2.20;;
31537;SDS011;18147;51.952;6.146;2024-03-02T00:29:32;4.32;;;2.45;;
31537;SDS011;18147;51.952;6.146;2024-03-02T00:31:59;6.78;;;2.30;;
31537;SDS011;18147;51.952;6.146;2024-03-02T00:34:26;3.20;;;2.40;;
31537;SDS011;18147;51.952;6.146;2024-03-02T00:36:51;6.05;;;2.30;;
31537;SDS011;18147;51.952;6.146;2024-03-02T00:39:17;3.67;;;1.90;;
31537;SDS011;18147;51.952;6.146;2024-03-02T00:41:43;4.93;;;2.20;;
31537;SDS011;18147;51.952;6.146;2024-03-02T00:44:09;3.88;;;2.65;;
31537;SDS011;18147;51.952;6.146;2024-03-02T00:46:40;4.05;;;2.35;;
31537;SDS011;18147;51.952;6.146;2024-03-02T00:51:51;5.70;;;2.15;;
31537;SDS011;18147;51.952;6.146;2024-03-02T00:54:21;2.55;;;2.15;;
31537;SDS011;18147;51.952;6.146;2024-03-02T00:56:49;5.07;;;2.43;;
31537;SDS011;18147;51.952;6.146;2024-03-02T00:59:16;2.53;;;1.88;;
31537;SDS011;18147;51.952;6.146;2024-03-02T01:01:42;7.05;;;2.17;;
31537;SDS011;18147;51.952;6.146;2024-03-02T01:04:08;6.53;;;2.60;;
31537;SDS011;18147;51.952;6.146;2024-03-02T01:06:34;3.58;;;2.25;;
31537;SDS011;18147;51.952;6.146;2024-03-02T01:09:00;4.68;;;2.05;;
31537;SDS011;18147;51.952;6.146;2024-03-02T01:11:25;6.65;;;2.20;;
31537;SDS011;18147;51.952;6.146;2024-03-02T01:13:51;2.72;;;2.10;;
31537;SDS011;18147;51.952;6.146;2024-03-02T01:16:17;7.88;;;2.53;;
31537;SDS011;18147;51.952;6.146;2024-03-02T01:18:42;3.88;;;2.38;;
31537;SDS011;18147;51.952;6.146;2024-03-02T01:21:08;6.78;;;2.42;;
31537;SDS011;18147;51.952;6.146;2024-03-02T01:23:33;6.05;;;2.70;;
31537;SDS011;18147;51.952;6.146;2024-03-02T01:25:59;8.93;;;2.63;;
31537;SDS011;18147;51.952;6.146;2024-03-02T01:28:24;5.78;;;2.53;;
31537;SDS011;18147;51.952;6.146;2024-03-02T01:30:50;4.90;;;2.38;;
31537;SDS011;18147;51.952;6.146;2024-03-02T01:33:19;3.80;;;2.63;;
31537;SDS011;18147;51.952;6.146;2024-03-02T01:35:45;4.90;;;2.17;;
31537;SDS011;18147;51.952;6.146;2024-03-02T01:38:10;4.05;;;2.60;;
31537;SDS011;18147;51.952;6.146;2024-03-02T01:40:36;5.55;;;2.50;;
31537;SDS011;18147;51.952;6.146;2024-03-02T01:43:06;7.97;;;2.20;;
31537;SDS011;18147;51.952;6.146;2024-03-02T01:45:32;7.43;;;2.25;;
31537;SDS011;18147;51.952;6.146;2024-03-02T01:47:58;2.20;;;1.80;;
31537;SDS011;18147;51.952;6.146;2024-03-02T01:50:27;3.97;;;1.80;;
31537;SDS011;18147;51.952;6.146;2024-03-02T01:52:54;3.05;;;1.65;;
31537;SDS011;18147;51.952;6.146;2024-03-02T01:55:20;2.65;;;1.92;;
31537;SDS011;18147;51.952;6.146;2024-03-02T01:57:46;7.05;;;2.30;;
31537;SDS011;18147;51.952;6.146;2024-03-02T02:00:13;4.95;;;1.85;;
31537;SDS011;18147;51.952;6.146;2024-03-02T02:02:38;6.90;;;1.83;;
31537;SDS011;18147;51.952;6.146;2024-03-02T02:05:04;3.00;;;1.52;;
31537;SDS011;18147;51.952;6.146;2024-03-02T02:07:30;4.07;;;1.85;;
31537;SDS011;18147;51.952;6.146;2024-03-02T02:09:56;3.30;;;1.75;;
31537;SDS011;18147;51.952;6.146;2024-03-02T02:12:22;4.10;;;1.63;;
31537;SDS011;18147;51.952;6.146;2024-03-02T02:14:47;2.50;;;1.92;;
31537;SDS011;18147;51.952;6.146;2024-03-02T02:17:14;3.08;;;1.60;;
31537;SDS011;18147;51.952;6.146;2024-03-02T02:19:40;2.60;;;1.23;;
31537;SDS011;18147;51.952;6.146;2024-03-02T02:22:06;2.25;;;1.50;;
31537;SDS011;18147;51.952;6.146;2024-03-02T02:24:31;3.33;;;1.42;;
31537;SDS011;18147;51.952;6.146;2024-03-02T02:26:57;6.07;;;1.52;;
31537;SDS011;18147;51.952;6.146;2024-03-02T02:29:22;1.98;;;1.20;;
31537;SDS011;18147;51.952;6.146;2024-03-02T02:31:48;1.70;;;1.40;;
31537;SDS011;18147;51.952;6.146;2024-03-02T02:34:14;2.47;;;1.20;;
31537;SDS011;18147;51.952;6.146;2024-03-02T02:36:39;3.17;;;1.08;;
31537;SDS011;18147;51.952;6.146;2024-03-02T02:39:05;0.90;;;0.90;;
31537;SDS011;18147;51.952;6.146;2024-03-02T02:41:33;3.40;;;1.35;;
31537;SDS011;18147;51.952;6.146;2024-03-02T02:43:59;1.00;;;0.90;;
31537;SDS011;18147;51.952;6.146;2024-03-02T02:46:24;2.00;;;0.82;;
31537;SDS011;18147;51.952;6.146;2024-03-02T02:48:49;6.47;;;2.28;;
31537;SDS011;18147;51.952;6.146;2024-03-02T02:51:16;1.15;;;0.95;;
31537;SDS011;18147;51.952;6.146;2024-03-02T02:53:42;4.40;;;1.27;;
31537;SDS011;18147;51.952;6.146;2024-03-02T02:56:07;1.15;;;0.80;;
31537;SDS011;18147;51.952;6.146;2024-03-02T02:58:33;3.78;;;0.90;;
31537;SDS011;18147;51.952;6.146;2024-03-02T03:00:58;2.97;;;0.93;;
31537;SDS011;18147;51.952;6.146;2024-03-02T03:03:24;1.10;;;0.98;;
31537;SDS011;18147;51.952;6.146;2024-03-02T03:05:49;1.58;;;0.90;;
31537;SDS011;18147;51.952;6.146;2024-03-02T03:08:15;0.70;;;0.70;;
31537;SDS011;18147;51.952;6.146;2024-03-02T03:10:43;0.98;;;0.85;;
31537;SDS011;18147;51.952;6.146;2024-03-02T03:13:09;0.52;;;0.50;;
31537;SDS011;18147;51.952;6.146;2024-03-02T03:15:35;1.52;;;1.00;;
31537;SDS011;18147;51.952;6.146;2024-03-02T03:18:04;1.98;;;0.73;;
31537;SDS011;18147;51.952;6.146;2024-03-02T03:20:30;3.65;;;0.60;;
31537;SDS011;18147;51.952;6.146;2024-03-02T03:22:56;1.65;;;0.50;;
31537;SDS011;18147;51.952;6.146;2024-03-02T03:25:23;2.05;;;0.70;;
31537;SDS011;18147;51.952;6.146;2024-03-02T03:27:49;2.13;;;0.70;;
31537;SDS011;18147;51.952;6.146;2024-03-02T03:30:15;0.50;;;0.50;;
31537;SDS011;18147;51.952;6.146;2024-03-02T03:32:41;0.60;;;0.57;;
31537;SDS011;18147;51.952;6.146;2024-03-02T03:35:06;0.50;;;0.50;;
31537;SDS011;18147;51.952;6.146;2024-03-02T03:37:32;0.88;;;0.50;;
31537;SDS011;18147;51.952;6.146;2024-03-02T03:40:01;0.88;;;0.68;;
31537;SDS011;18147;51.952;6.146;2024-03-02T03:42:27;0.60;;;0.60;;
31537;SDS011;18147;51.952;6.146;2024-03-02T03:44:53;1.02;;;0.70;;
31537;SDS011;18147;51.952;6.146;2024-03-02T03:47:18;2.33;;;0.60;;
31537;SDS011;18147;51.952;6.146;2024-03-02T03:49:45;1.17;;;0.60;;
31537;SDS011;18147;51.952;6.146;2024-03-02T03:52:10;0.88;;;0.50;;
31537;SDS011;18147;51.952;6.146;2024-03-02T03:54:38;2.15;;;1.48;;
31537;SDS011;18147;51.952;6.146;2024-03-02T03:57:04;1.50;;;0.80;;
31537;SDS011;18147;51.952;6.146;2024-03-02T03:59:29;0.65;;;0.60;;
31537;SDS011;18147;51.952;6.146;2024-03-02T04:01:55;0.93;;;0.50;;
31537;SDS011;18147;51.952;6.146;2024-03-02T04:04:20;1.52;;;0.43;;
31537;SDS011;18147;51.952;6.146;2024-03-02T04:06:46;0.80;;;0.32;;
31537;SDS011;18147;51.952;6.146;2024-03-02T04:09:12;2.65;;;0.75;;
31537;SDS011;18147;51.952;6.146;2024-03-02T04:11:37;0.90;;;0.57;;
31537;SDS011;18147;51.952;6.146;2024-03-02T04:14:03;0.90;;;0.70;;
31537;SDS011;18147;51.952;6.146;2024-03-02T04:16:28;0.70;;;0.40;;
31537;SDS011;18147;51.952;6.146;2024-03-02T04:18:54;4.72;;;0.90;;
31537;SDS011;18147;51.952;6.146;2024-03-02T04:21:19;0.85;;;0.52;;
31537;SDS011;18147;51.952;6.146;2024-03-02T04:23:45;1.15;;;0.75;;
31537;SDS011;18147;51.952;6.146;2024-03-02T04:26:10;1.02;;;0.70;;
31537;SDS011;18147;51.952;6.146;2024-03-02T04:28:36;1.55;;;0.70;;
31537;SDS011;18147;51.952;6.146;2024-03-02T04:31:01;3.72;;;0.65;;
31537;SDS011;18147;51.952;6.146;2024-03-02T04:33:27;0.55;;;0.55;;
31537;SDS011;18147;51.952;6.146;2024-03-02T04:35:52;2.15;;;0.50;;
31537;SDS011;18147;51.952;6.146;2024-03-02T04:38:18;0.98;;;0.60;;
31537;SDS011;18147;51.952;6.146;2024-03-02T04:40:43;0.93;;;0.60;;
31537;SDS011;18147;51.952;6.146;2024-03-02T04:43:08;0.60;;;0.60;;
31537;SDS011;18147;51.952;6.146;2024-03-02T04:45:37;1.23;;;0.50;;
31537;SDS011;18147;51.952;6.146;2024-03-02T04:48:03;0.45;;;0.45;;
31537;SDS011;18147;51.952;6.146;2024-03-02T04:50:28;1.02;;;0.93;;
31537;SDS011;18147;51.952;6.146;2024-03-02T04:52:54;2.10;;;0.70;;
31537;SDS011;18147;51.952;6.146;2024-03-02T04:55:19;2.28;;;0.68;;
31537;SDS011;18147;51.952;6.146;2024-03-02T05:00:27;1.20;;;0.60;;
31537;SDS011;18147;51.952;6.146;2024-03-02T05:02:53;1.30;;;0.93;;
31537;SDS011;18147;51.952;6.146;2024-03-02T05:05:20;0.50;;;0.50;;
31537;SDS011;18147;51.952;6.146;2024-03-02T05:07:45;1.98;;;0.77;;
31537;SDS011;18147;51.952;6.146;2024-03-02T05:10:11;0.80;;;0.50;;
31537;SDS011;18147;51.952;6.146;2024-03-02T05:12:37;0.65;;;0.65;;
31537;SDS011;18147;51.952;6.146;2024-03-02T05:15:13;1.10;;;0.60;;
31537;SDS011;18147;51.952;6.146;2024-03-02T05:17:39;0.63;;;0.60;;
31537;SDS011;18147;51.952;6.146;2024-03-02T05:20:06;0.70;;;0.70;;
31537;SDS011;18147;51.952;6.146;2024-03-02T05:22:33;0.93;;;0.60;;
31537;SDS011;18147;51.952;6.146;2024-03-02T05:24:59;1.50;;;0.70;;
31537;SDS011;18147;51.952;6.146;2024-03-02T05:27:26;2.17;;;0.50;;
31537;SDS011;18147;51.952;6.146;2024-03-02T05:29:51;0.85;;;0.60;;
31537;SDS011;18147;51.952;6.146;2024-03-02T05:32:17;0.93;;;0.60;;
31537;SDS011;18147;51.952;6.146;2024-03-02T05:34:42;1.20;;;0.50;;
31537;SDS011;18147;51.952;6.146;2024-03-02T05:37:08;0.98;;;0.60;;
31537;SDS011;18147;51.952;6.146;2024-03-02T05:39:33;0.98;;;0.60;;
31537;SDS011;18147;51.952;6.146;2024-03-02T05:41:59;1.83;;;0.63;;
31537;SDS011;18147;51.952;6.146;2024-03-02T05:44:24;0.75;;;0.75;;
31537;SDS011;18147;51.952;6.146;2024-03-02T05:46:49;1.85;;;0.70;;
31537;SDS011;18147;51.952;6.146;2024-03-02T05:49:15;0.47;;;0.47;;
31537;SDS011;18147;51.952;6.146;2024-03-02T05:51:41;2.67;;;0.70;;
31537;SDS011;18147;51.952;6.146;2024-03-02T05:54:06;0.88;;;0.70;;
31537;SDS011;18147;51.952;6.146;2024-03-02T05:56:32;1.67;;;0.68;;
31537;SDS011;18147;51.952;6.146;2024-03-02T05:58:57;1.60;;;0.63;;
31537;SDS011;18147;51.952;6.146;2024-03-02T06:01:39;2.25;;;0.60;;
31537;SDS011;18147;51.952;6.146;2024-03-02T06:04:08;5.95;;;1.08;;
31537;SDS011;18147;51.952;6.146;2024-03-02T06:06:33;1.45;;;0.80;;
31537;SDS011;18147;51.952;6.146;2024-03-02T06:08:59;1.55;;;0.65;;
31537;SDS011;18147;51.952;6.146;2024-03-02T06:11:32;0.80;;;0.80;;
31537;SDS011;18147;51.952;6.146;2024-03-02T06:14:04;2.45;;;0.65;;
31537;SDS011;18147;51.952;6.146;2024-03-02T06:16:33;4.13;;;0.75;;
31537;SDS011;18147;51.952;6.146;2024-03-02T06:18:59;0.60;;;0.60;;
31537;SDS011;18147;51.952;6.146;2024-03-02T06:21:25;0.70;;;0.68;;
31537;SDS011;18147;51.952;6.146;2024-03-02T06:23:51;3.30;;;0.82;;
31537;SDS011;18147;51.952;6.146;2024-03-02T06:26:17;1.77;;;0.90;;
31537;SDS011;18147;51.952;6.146;2024-03-02T06:28:43;2.42;;;0.80;;
31537;SDS011;18147;51.952;6.146;2024-03-02T06:31:09;3.60;;;0.80;;
31537;SDS011;18147;51.952;6.146;2024-03-02T06:33:35;2.28;;;0.70;;
31537;SDS011;18147;51.952;6.146;2024-03-02T06:36:00;2.20;;;0.88;;
31537;SDS011;18147;51.952;6.146;2024-03-02T06:38:26;1.33;;;0.95;;
31537;SDS011;18147;51.952;6.146;2024-03-02T06:40:52;0.70;;;0.70;;
31537;SDS011;18147;51.952;6.146;2024-03-02T06:43:17;3.17;;;1.00;;
31537;SDS011;18147;51.952;6.146;2024-03-02T06:45:43;2.40;;;1.00;;
31537;SDS011;18147;51.952;6.146;2024-03-02T06:48:08;1.73;;;0.95;;
31537;SDS011;18147;51.952;6.146;2024-03-02T06:50:34;2.38;;;0.80;;
31537;SDS011;18147;51.952;6.146;2024-03-02T06:52:59;2.38;;;1.17;;
31537;SDS011;18147;51.952;6.146;2024-03-02T06:55:25;3.33;;;0.90;;
31537;SDS011;18147;51.952;6.146;2024-03-02T06:57:50;1.95;;;0.90;;
31537;SDS011;18147;51.952;6.146;2024-03-02T07:00:17;2.03;;;1.13;;
31537;SDS011;18147;51.952;6.146;2024-03-02T07:02:43;1.80;;;1.00;;
31537;SDS011;18147;51.952;6.146;2024-03-02T07:05:09;4.00;;;1.13;;
31537;SDS011;18147;51.952;6.146;2024-03-02T07:07:35;2.03;;;1.00;;
31537;SDS011;18147;51.952;6.146;2024-03-02T07:10:01;2.20;;;1.27;;
31537;SDS011;18147;51.952;6.146;2024-03-02T07:12:28;1.95;;;1.20;;
31537;SDS011;18147;51.952;6.146;2024-03-02T07:14:53;2.03;;;1.17;;
31537;SDS011;18147;51.952;6.146;2024-03-02T07:17:33;2.75;;;1.27;;
31537;SDS011;18147;51.952;6.146;2024-03-02T07:19:59;3.72;;;1.25;;
31537;SDS011;18147;51.952;6.146;2024-03-02T07:22:24;1.65;;;1.15;;
31537;SDS011;18147;51.952;6.146;2024-03-02T07:24:50;3.13;;;1.17;;
31537;SDS011;18147;51.952;6.146;2024-03-02T07:27:16;4.40;;;1.40;;
31537;SDS011;18147;51.952;6.146;2024-03-02T07:29:42;3.60;;;1.83;;
31537;SDS011;18147;51.952;6.146;2024-03-02T07:32:08;4.00;;;1.13;;
31537;SDS011;18147;51.952;6.146;2024-03-02T07:34:34;2.97;;;1.33;;
31537;SDS011;18147;51.952;6.146;2024-03-02T07:37:00;2.17;;;0.98;;
31537;SDS011;18147;51.952;6.146;2024-03-02T07:39:26;3.75;;;1.20;;
31537;SDS011;18147;51.952;6.146;2024-03-02T07:41:51;2.80;;;1.13;;
31537;SDS011;18147;51.952;6.146;2024-03-02T07:44:17;2.75;;;0.90;;
31537;SDS011;18147;51.952;6.146;2024-03-02T07:46:47;5.55;;;0.98;;
31537;SDS011;18147;51.952;6.146;2024-03-02T07:51:42;2.97;;;1.20;;
31537;SDS011;18147;51.952;6.146;2024-03-02T07:54:08;2.58;;;1.13;;
31537;SDS011;18147;51.952;6.146;2024-03-02T07:56:33;2.78;;;1.48;;
31537;SDS011;18147;51.952;6.146;2024-03-02T07:58:59;3.33;;;1.30;;
31537;SDS011;18147;51.952;6.146;2024-03-02T08:01:29;3.03;;;1.30;;
31537;SDS011;18147;51.952;6.146;2024-03-02T08:03:56;2.60;;;1.30;;
31537;SDS011;18147;51.952;6.146;2024-03-02T08:06:23;3.63;;;1.50;;
31537;SDS011;18147;51.952;6.146;2024-03-02T08:08:52;3.05;;;1.38;;
31537;SDS011;18147;51.952;6.146;2024-03-02T08:11:30;1.85;;;1.30;;
31537;SDS011;18147;51.952;6.146;2024-03-02T08:13:56;2.70;;;1.25;;
31537;SDS011;18147;51.952;6.146;2024-03-02T08:16:22;3.53;;;1.42;;
31537;SDS011;18147;51.952;6.146;2024-03-02T08:18:49;3.70;;;1.33;;
31537;SDS011;18147;51.952;6.146;2024-03-02T08:21:14;3.97;;;1.42;;
31537;SDS011;18147;51.952;6.146;2024-03-02T08:23:40;2.53;;;1.33;;
31537;SDS011;18147;51.952;6.146;2024-03-02T08:26:07;2.13;;;1.15;;
31537;SDS011;18147;51.952;6.146;2024-03-02T08:28:33;4.55;;;1.63;;
31537;SDS011;18147;51.952;6.146;2024-03-02T08:30:59;3.45;;;1.40;;
31537;SDS011;18147;51.952;6.146;2024-03-02T08:33:24;3.92;;;1.30;;
31537;SDS011;18147;51.952;6.146;2024-03-02T08:35:50;2.92;;;1.20;;
31537;SDS011;18147;51.952;6.146;2024-03-02T08:38:16;3.17;;;1.23;;
31537;SDS011;18147;51.952;6.146;2024-03-02T08:40:41;7.70;;;1.30;;
31537;SDS011;18147;51.952;6.146;2024-03-02T08:43:07;4.32;;;1.50;;
31537;SDS011;18147;51.952;6.146;2024-03-02T08:45:32;4.75;;;1.17;;
31537;SDS011;18147;51.952;6.146;2024-03-02T08:47:59;4.78;;;1.15;;
31537;SDS011;18147;51.952;6.146;2024-03-02T08:50:24;9.27;;;1.85;;
31537;SDS011;18147;51.952;6.146;2024-03-02T08:52:50;4.32;;;1.30;;
31537;SDS011;18147;51.952;6.146;2024-03-02T08:55:15;4.45;;;1.23;;
31537;SDS011;18147;51.952;6.146;2024-03-02T08:57:40;2.83;;;1.20;;
31537;SDS011;18147;51.952;6.146;2024-03-02T09:00:07;4.45;;;1.60;;
31537;SDS011;18147;51.952;6.146;2024-03-02T09:02:33;2.53;;;1.10;;
31537;SDS011;18147;51.952;6.146;2024-03-02T09:04:59;3.83;;;1.30;;
31537;SDS011;18147;51.952;6.146;2024-03-02T09:07:24;4.80;;;1.50;;
31537;SDS011;18147;51.952;6.146;2024-03-02T09:09:49;4.00;;;1.00;;
31537;SDS011;18147;51.952;6.146;2024-03-02T09:12:18;4.10;;;1.50;;
31537;SDS011;18147;51.952;6.146;2024-03-02T09:14:44;2.88;;;1.27;;
31537;SDS011;18147;51.952;6.146;2024-03-02T09:17:11;3.95;;;1.25;;
31537;SDS011;18147;51.952;6.146;2024-03-02T09:19:37;4.32;;;1.10;;
31537;SDS011;18147;51.952;6.146;2024-03-02T09:22:03;3.80;;;1.05;;
31537;SDS011;18147;51.952;6.146;2024-03-02T09:24:30;12.75;;;3.17;;
31537;SDS011;18147;51.952;6.146;2024-03-02T09:26:56;4.75;;;1.02;;
31537;SDS011;18147;51.952;6.146;2024-03-02T09:29:21;5.25;;;1.27;;
31537;SDS011;18147;51.952;6.146;2024-03-02T09:31:47;3.35;;;1.05;;
31537;SDS011;18147;51.952;6.146;2024-03-02T09:34:12;4.05;;;1.10;;
31537;SDS011;18147;51.952;6.146;2024-03-02T09:36:39;5.68;;;1.25;;
31537;SDS011;18147;51.952;6.146;2024-03-02T09:39:05;3.00;;;0.68;;
31537;SDS011;18147;51.952;6.146;2024-03-02T09:41:32;3.42;;;0.90;;
31537;SDS011;18147;51.952;6.146;2024-03-02T09:43:58;6.68;;;1.88;;
31537;SDS011;18147;51.952;6.146;2024-03-02T09:46:24;3.80;;;1.73;;
31537;SDS011;18147;51.952;6.146;2024-03-02T09:48:49;2.90;;;1.20;;
31537;SDS011;18147;51.952;6.146;2024-03-02T09:51:15;3.15;;;1.08;;
31537;SDS011;18147;51.952;6.146;2024-03-02T09:53:44;5.90;;;1.60;;
31537;SDS011;18147;51.952;6.146;2024-03-02T09:56:10;4.90;;;1.45;;
31537;SDS011;18147;51.952;6.146;2024-03-02T09:58:36;9.00;;;1.13;;
31537;SDS011;18147;51.952;6.146;2024-03-02T10:01:01;4.28;;;1.98;;
31537;SDS011;18147;51.952;6.146;2024-03-02T10:03:26;5.03;;;1.35;;
31537;SDS011;18147;51.952;6.146;2024-03-02T10:05:54;6.40;;;1.52;;
31537;SDS011;18147;51.952;6.146;2024-03-02T10:08:20;7.32;;;1.27;;
31537;SDS011;18147;51.952;6.146;2024-03-02T10:10:45;3.67;;;1.05;;
31537;SDS011;18147;51.952;6.146;2024-03-02T10:13:11;9.35;;;1.95;;
31537;SDS011;18147;51.952;6.146;2024-03-02T10:15:38;2.88;;;0.90;;
31537;SDS011;18147;51.952;6.146;2024-03-02T10:18:10;2.53;;;0.77;;
31537;SDS011;18147;51.952;6.146;2024-03-02T10:20:37;4.55;;;0.90;;
31537;SDS011;18147;51.952;6.146;2024-03-02T10:23:13;2.53;;;1.05;;
31537;SDS011;18147;51.952;6.146;2024-03-02T10:25:41;6.95;;;1.30;;
31537;SDS011;18147;51.952;6.146;2024-03-02T10:28:07;6.43;;;1.40;;
31537;SDS011;18147;51.952;6.146;2024-03-02T10:30:33;2.92;;;1.55;;
31537;SDS011;18147;51.952;6.146;2024-03-02T10:32:59;6.15;;;1.90;;
31537;SDS011;18147;51.952;6.146;2024-03-02T10:35:26;3.25;;;1.27;;
31537;SDS011;18147;51.952;6.146;2024-03-02T10:37:52;2.95;;;1.02;;
31537;SDS011;18147;51.952;6.146;2024-03-02T10:40:22;2.72;;;1.45;;
31537;SDS011;18147;51.952;6.146;2024-03-02T10:42:48;5.28;;;2.08;;
31537;SDS011;18147;51.952;6.146;2024-03-02T10:45:15;5.85;;;1.23;;
31537;SDS011;18147;51.952;6.146;2024-03-02T10:47:44;6.07;;;1.80;;
31537;SDS011;18147;51.952;6.146;2024-03-02T10:50:11;5.95;;;1.63;;
31537;SDS011;18147;51.952;6.146;2024-03-02T10:52:37;6.82;;;4.22;;
31537;SDS011;18147;51.952;6.146;2024-03-02T10:55:04;6.47;;;2.72;;
31537;SDS011;18147;51.952;6.146;2024-03-02T10:57:36;7.43;;;1.45;;
31537;SDS011;18147;51.952;6.146;2024-03-02T11:00:15;4.97;;;1.45;;
31537;SDS011;18147;51.952;6.146;2024-03-02T11:02:50;3.95;;;1.58;;
31537;SDS011;18147;51.952;6.146;2024-03-02T11:05:19;6.30;;;1.70;;
31537;SDS011;18147;51.952;6.146;2024-03-02T11:07:53;3.38;;;1.70;;
31537;SDS011;18147;51.952;6.146;2024-03-02T11:10:25;5.97;;;1.75;;
31537;SDS011;18147;51.952;6.146;2024-03-02T11:12:55;4.05;;;1.55;;
31537;SDS011;18147;51.952;6.146;2024-03-02T11:15:24;3.33;;;1.33;;
31537;SDS011;18147;51.952;6.146;2024-03-02T11:17:51;3.15;;;1.05;;
31537;SDS011;18147;51.952;6.146;2024-03-02T11:20:18;7.07;;;1.40;;
31537;SDS011;18147;51.952;6.146;2024-03-02T11:22:45;4.40;;;1.20;;
31537;SDS011;18147;51.952;6.146;2024-03-02T11:25:27;4.50;;;1.20;;
31537;SDS011;18147;51.952;6.146;2024-03-02T11:35:35;4.53;;;1.10;;
31537;SDS011;18147;51.952;6.146;2024-03-02T11:38:02;5.38;;;1.60;;
31537;SDS011;18147;51.952;6.146;2024-03-02T11:40:28;7.78;;;3.40;;
31537;SDS011;18147;51.952;6.146;2024-03-02T11:42:55;3.28;;;1.50;;
31537;SDS011;18147;51.952;6.146;2024-03-02T11:45:24;2.85;;;1.58;;
31537;SDS011;18147;51.952;6.146;2024-03-02T11:47:51;1.88;;;1.05;;
31537;SDS011;18147;51.952;6.146;2024-03-02T11:50:28;4.00;;;1.17;;
31537;SDS011;18147;51.952;6.146;2024-03-02T11:52:54;2.25;;;1.10;;
31537;SDS011;18147;51.952;6.146;2024-03-02T11:55:21;4.20;;;1.00;;
31537;SDS011;18147;51.952;6.146;2024-03-02T11:57:47;2.58;;;1.05;;
31537;SDS011;18147;51.952;6.146;2024-03-02T12:00:18;10.85;;;5.55;;
31537;SDS011;18147;51.952;6.146;2024-03-02T12:02:44;1.67;;;0.85;;
31537;SDS011;18147;51.952;6.146;2024-03-02T12:05:14;2.88;;;1.30;;
31537;SDS011;18147;51.952;6.146;2024-03-02T12:07:41;4.78;;;1.30;;
31537;SDS011;18147;51.952;6.146;2024-03-02T12:10:08;5.10;;;1.40;;
31537;SDS011;18147;51.952;6.146;2024-03-02T12:12:34;6.28;;;1.58;;
31537;SDS011;18147;51.952;6.146;2024-03-02T12:14:59;5.85;;;2.58;;
31537;SDS011;18147;51.952;6.146;2024-03-02T12:17:25;5.18;;;1.95;;
31537;SDS011;18147;51.952;6.146;2024-03-02T12:19:51;3.95;;;1.40;;
31537;SDS011;18147;51.952;6.146;2024-03-02T12:22:17;3.33;;;1.67;;
31537;SDS011;18147;51.952;6.146;2024-03-02T12:24:43;4.38;;;1.73;;
31537;SDS011;18147;51.952;6.146;2024-03-02T12:27:13;2.25;;;1.20;;
31537;SDS011;18147;51.952;6.146;2024-03-02T12:29:40;3.60;;;1.73;;
31537;SDS011;18147;51.952;6.146;2024-03-02T12:32:06;2.58;;;1.70;;
31537;SDS011;18147;51.952;6.146;2024-03-02T12:34:31;2.42;;;1.55;;
31537;SDS011;18147;51.952;6.146;2024-03-02T12:36:57;2.15;;;1.63;;
31537;SDS011;18147;51.952;6.146;2024-03-02T12:39:23;7.22;;;2.03;;
31537;SDS011;18147;51.952;6.146;2024-03-02T12:41:49;4.05;;;1.67;;
31537;SDS011;18147;51.952;6.146;2024-03-02T12:44:16;3.20;;;1.63;;
31537;SDS011;18147;51.952;6.146;2024-03-02T12:46:42;2.83;;;2.00;;
31537;SDS011;18147;51.952;6.146;2024-03-02T12:49:09;4.43;;;2.10;;
31537;SDS011;18147;51.952;6.146;2024-03-02T12:51:39;3.05;;;2.00;;
31537;SDS011;18147;51.952;6.146;2024-03-02T12:54:09;8.93;;;2.13;;
31537;SDS011;18147;51.952;6.146;2024-03-02T12:56:38;3.92;;;1.92;;
31537;SDS011;18147;51.952;6.146;2024-03-02T12:59:10;3.20;;;1.80;;
31537;SDS011;18147;51.952;6.146;2024-03-02T13:01:50;7.75;;;1.70;;
31537;SDS011;18147;51.952;6.146;2024-03-02T13:04:24;6.30;;;1.88;;
31537;SDS011;18147;51.952;6.146;2024-03-02T13:06:51;4.75;;;1.77;;
31537;SDS011;18147;51.952;6.146;2024-03-02T13:09:17;9.65;;;1.85;;
31537;SDS011;18147;51.952;6.146;2024-03-02T13:11:43;5.38;;;1.85;;
31537;SDS011;18147;51.952;6.146;2024-03-02T13:14:10;5.20;;;1.70;;
31537;SDS011;18147;51.952;6.146;2024-03-02T13:16:39;3.65;;;2.03;;
31537;SDS011;18147;51.952;6.146;2024-03-02T13:19:07;3.83;;;1.55;;
31537;SDS011;18147;51.952;6.146;2024-03-02T13:21:33;3.47;;;1.25;;
31537;SDS011;18147;51.952;6.146;2024-03-02T13:23:58;3.47;;;1.73;;
31537;SDS011;18147;51.952;6.146;2024-03-02T13:26:25;3.85;;;1.83;;
31537;SDS011;18147;51.952;6.146;2024-03-02T13:28:50;4.93;;;1.38;;
31537;SDS011;18147;51.952;6.146;2024-03-02T13:31:16;4.72;;;1.88;;
31537;SDS011;18147;51.952;6.146;2024-03-02T13:33:41;6.63;;;1.30;;
31537;SDS011;18147;51.952;6.146;2024-03-02T13:36:07;8.80;;;1.80;;
31537;SDS011;18147;51.952;6.146;2024-03-02T13:38:33;2.72;;;1.20;;
31537;SDS011;18147;51.952;6.146;2024-03-02T13:40:58;2.00;;;1.23;;
31537;SDS011;18147;51.952;6.146;2024-03-02T13:43:25;3.03;;;1.17;;
31537;SDS011;18147;51.952;6.146;2024-03-02T13:45:51;5.28;;;1.42;;
31537;SDS011;18147;51.952;6.146;2024-03-02T13:48:18;2.55;;;1.20;;
31537;SDS011;18147;51.952;6.146;2024-03-02T13:50:44;5.68;;;1.30;;
31537;SDS011;18147;51.952;6.146;2024-03-02T13:53:10;1.85;;;1.10;;
31537;SDS011;18147;51.952;6.146;2024-03-02T13:55:37;4.47;;;1.20;;
31537;SDS011;18147;51.952;6.146;2024-03-02T13:58:03;3.20;;;1.23;;
31537;SDS011;18147;51.952;6.146;2024-03-02T14:00:29;2.63;;;1.65;;
31537;SDS011;18147;51.952;6.146;2024-03-02T14:02:55;4.55;;;1.48;;
31537;SDS011;18147;51.952;6.146;2024-03-02T14:05:21;3.10;;;1.20;;
31537;SDS011;18147;51.952;6.146;2024-03-02T14:07:46;3.20;;;1.63;;
31537;SDS011;18147;51.952;6.146;2024-03-02T14:10:11;4.10;;;1.48;;
31537;SDS011;18147;51.952;6.146;2024-03-02T14:12:37;4.55;;;1.17;;
31537;SDS011;18147;51.952;6.146;2024-03-02T14:15:03;6.57;;;1.52;;
31537;SDS011;18147;51.952;6.146;2024-03-02T14:17:29;3.28;;;1.40;;
31537;SDS011;18147;51.952;6.146;2024-03-02T14:19:57;5.78;;;1.80;;
31537;SDS011;18147;51.952;6.146;2024-03-02T14:22:23;3.10;;;1.70;;
31537;SDS011;18147;51.952;6.146;2024-03-02T14:24:49;4.55;;;1.52;;
31537;SDS011;18147;51.952;6.146;2024-03-02T14:27:15;7.10;;;1.40;;
31537;SDS011;18147;51.952;6.146;2024-03-02T14:29:43;3.08;;;1.33;;
31537;SDS011;18147;51.952;6.146;2024-03-02T14:32:09;4.15;;;1.27;;
31537;SDS011;18147;51.952;6.146;2024-03-02T14:34:34;4.20;;;1.30;;
31537;SDS011;18147;51.952;6.146;2024-03-02T14:37:00;4.78;;;1.95;;
31537;SDS011;18147;51.952;6.146;2024-03-02T14:39:26;3.92;;;1.50;;
31537;SDS011;18147;51.952;6.146;2024-03-02T14:41:51;6.22;;;1.23;;
31537;SDS011;18147;51.952;6.146;2024-03-02T14:44:17;5.25;;;1.75;;
31537;SDS011;18147;51.952;6.146;2024-03-02T14:46:43;5.40;;;2.47;;
31537;SDS011;18147;51.952;6.146;2024-03-02T14:49:09;4.10;;;1.80;;
31537;SDS011;18147;51.952;6.146;2024-03-02T14:51:35;4.68;;;1.45;;
31537;SDS011;18147;51.952;6.146;2024-03-02T14:54:01;9.25;;;2.30;;
31537;SDS011;18147;51.952;6.146;2024-03-02T14:56:26;7.57;;;2.15;;
31537;SDS011;18147;51.952;6.146;2024-03-02T14:58:53;6.13;;;2.20;;